Terminal Aerodrome Forecast
Issued by NWS

Home | Current Version | Previous Version | Text Only | Print | Product List | Glossary On
Versions: 1 2 3 4 5 6 7 8 9 10 11 12 13 14 15 16 17 18 19 20 21
000
FTUS44 KHGX 281334 AAA
TAFLBX
TAF AMD
KLBX 281334Z 2814/2912 03009KT 3SM TSRA BR BKN006 OVC010CB
     FM281420 04006KT P6SM VCTS BKN012CB OVC060
      TEMPO 2815/2816 SCT030CB OVC100
     FM281600 03006KT P6SM VCTS BKN035CB OVC100
     FM290100 03003KT P6SM BKN120
     FM290900 35003KT P6SM VCSH SCT025 BKN050=

USA.gov is the U.S. government's official web portal to all federal, state and local government web resources and services.